Terminal Aerodrome Forecast
Issued by NWS Paducah, KY

Home | Current Version | Previous Version | Text Only | Print | Product List | Glossary Off
Versions: 1 2 3 4 5 6 7 8 9 10 11 12 13 14 15 16 17 18 19

000
FTUS43 KPAH 291402 AAB
TAFPAH
TAF AMD
KPAH 291402Z 2914/3012 24012G18KT P6SM SCT030
     FM291600 27009KT P6SM SCT030 BKN050
     FM300000 VRB03KT P6SM SCT070=

USA.gov is the U.S. government's official web portal to all federal, state and local government web resources and services.